sensor_id;sensor_type;location;lat;lon;timestamp;P1;durP1;ratioP1;P2;durP2;ratioP2
68866;SDS011;56451;44.804;20.476;2023-04-12T00:02:13;4.32;;;2.55;;
68866;SDS011;56451;44.804;20.476;2023-04-12T00:04:39;6.50;;;2.90;;
68866;SDS011;56451;44.804;20.476;2023-04-12T00:07:05;3.65;;;2.47;;
68866;SDS011;56451;44.804;20.476;2023-04-12T00:09:34;4.20;;;2.57;;
68866;SDS011;56451;44.804;20.476;2023-04-12T00:12:02;10.27;;;4.63;;
68866;SDS011;56451;44.804;20.476;2023-04-12T00:14:28;4.70;;;2.70;;
68866;SDS011;56451;44.804;20.476;2023-04-12T00:16:54;4.50;;;2.70;;
68866;SDS011;56451;44.804;20.476;2023-04-12T00:19:20;5.30;;;2.43;;
68866;SDS011;56451;44.804;20.476;2023-04-12T00:21:46;4.55;;;2.83;;
68866;SDS011;56451;44.804;20.476;2023-04-12T00:24:13;4.43;;;2.65;;
68866;SDS011;56451;44.804;20.476;2023-04-12T00:26:38;6.23;;;2.80;;
68866;SDS011;56451;44.804;20.476;2023-04-12T00:29:04;4.43;;;2.58;;
68866;SDS011;56451;44.804;20.476;2023-04-12T00:31:31;3.30;;;2.20;;
68866;SDS011;56451;44.804;20.476;2023-04-12T00:33:56;5.17;;;2.80;;
68866;SDS011;56451;44.804;20.476;2023-04-12T00:36:25;3.67;;;2.33;;
68866;SDS011;56451;44.804;20.476;2023-04-12T00:38:51;6.35;;;2.90;;
68866;SDS011;56451;44.804;20.476;2023-04-12T00:41:17;4.43;;;2.47;;
68866;SDS011;56451;44.804;20.476;2023-04-12T00:43:43;4.18;;;2.30;;
68866;SDS011;56451;44.804;20.476;2023-04-12T00:46:09;5.28;;;2.58;;
68866;SDS011;56451;44.804;20.476;2023-04-12T00:48:36;5.35;;;3.17;;
68866;SDS011;56451;44.804;20.476;2023-04-12T00:51:04;4.93;;;2.77;;
68866;SDS011;56451;44.804;20.476;2023-04-12T00:53:31;4.88;;;2.35;;
68866;SDS011;56451;44.804;20.476;2023-04-12T00:55:58;5.57;;;2.85;;
68866;SDS011;56451;44.804;20.476;2023-04-12T00:58:25;4.85;;;2.38;;
68866;SDS011;56451;44.804;20.476;2023-04-12T01:00:51;12.77;;;4.00;;
68866;SDS011;56451;44.804;20.476;2023-04-12T01:03:19;5.80;;;2.30;;
68866;SDS011;56451;44.804;20.476;2023-04-12T01:06:13;3.90;;;2.30;;
68866;SDS011;56451;44.804;20.476;2023-04-12T01:08:59;6.75;;;2.60;;
68866;SDS011;56451;44.804;20.476;2023-04-12T01:14:06;11.73;;;4.68;;
68866;SDS011;56451;44.804;20.476;2023-04-12T01:16:57;8.57;;;3.50;;
68866;SDS011;56451;44.804;20.476;2023-04-12T01:28:11;5.17;;;3.20;;
68866;SDS011;56451;44.804;20.476;2023-04-12T01:30:36;5.15;;;3.05;;
68866;SDS011;56451;44.804;20.476;2023-04-12T01:33:04;5.95;;;2.85;;
68866;SDS011;56451;44.804;20.476;2023-04-12T01:35:31;6.90;;;3.22;;
68866;SDS011;56451;44.804;20.476;2023-04-12T01:37:58;6.05;;;3.05;;
68866;SDS011;56451;44.804;20.476;2023-04-12T01:40:28;8.67;;;3.30;;
68866;SDS011;56451;44.804;20.476;2023-04-12T01:43:07;6.72;;;3.00;;
68866;SDS011;56451;44.804;20.476;2023-04-12T01:45:37;5.43;;;2.95;;
68866;SDS011;56451;44.804;20.476;2023-04-12T01:48:04;5.97;;;3.40;;
68866;SDS011;56451;44.804;20.476;2023-04-12T01:50:36;13.40;;;5.35;;
68866;SDS011;56451;44.804;20.476;2023-04-12T01:54:10;7.50;;;3.40;;
68866;SDS011;56451;44.804;20.476;2023-04-12T01:56:14;5.88;;;2.90;;
68866;SDS011;56451;44.804;20.476;2023-04-12T01:58:42;4.88;;;2.60;;
68866;SDS011;56451;44.804;20.476;2023-04-12T02:01:14;4.90;;;2.10;;
68866;SDS011;56451;44.804;20.476;2023-04-12T02:03:42;4.65;;;2.22;;
68866;SDS011;56451;44.804;20.476;2023-04-12T02:06:10;3.37;;;1.60;;
68866;SDS011;56451;44.804;20.476;2023-04-12T02:08:37;4.32;;;1.98;;
68866;SDS011;56451;44.804;20.476;2023-04-12T02:11:09;3.63;;;1.50;;
68866;SDS011;56451;44.804;20.476;2023-04-12T02:13:36;3.88;;;2.05;;
68866;SDS011;56451;44.804;20.476;2023-04-12T02:16:03;4.57;;;1.40;;
68866;SDS011;56451;44.804;20.476;2023-04-12T02:18:32;13.10;;;4.50;;
68866;SDS011;56451;44.804;20.476;2023-04-12T02:21:00;4.70;;;1.60;;
68866;SDS011;56451;44.804;20.476;2023-04-12T02:23:27;5.10;;;2.17;;
68866;SDS011;56451;44.804;20.476;2023-04-12T02:25:53;3.38;;;1.90;;
68866;SDS011;56451;44.804;20.476;2023-04-12T02:28:19;4.10;;;1.67;;
68866;SDS011;56451;44.804;20.476;2023-04-12T02:30:45;4.38;;;1.63;;
68866;SDS011;56451;44.804;20.476;2023-04-12T02:33:11;4.13;;;1.67;;
68866;SDS011;56451;44.804;20.476;2023-04-12T02:35:40;3.83;;;1.33;;
68866;SDS011;56451;44.804;20.476;2023-04-12T02:38:10;3.45;;;1.10;;
68866;SDS011;56451;44.804;20.476;2023-04-12T02:40:39;1.53;;;0.80;;
68866;SDS011;56451;44.804;20.476;2023-04-12T02:43:07;1.63;;;0.70;;
68866;SDS011;56451;44.804;20.476;2023-04-12T02:45:37;1.20;;;0.80;;
68866;SDS011;56451;44.804;20.476;2023-04-12T02:48:03;1.55;;;0.73;;
68866;SDS011;56451;44.804;20.476;2023-04-12T02:50:31;4.05;;;1.10;;
68866;SDS011;56451;44.804;20.476;2023-04-12T02:53:08;3.40;;;1.30;;
68866;SDS011;56451;44.804;20.476;2023-04-12T02:55:35;1.73;;;0.80;;
68866;SDS011;56451;44.804;20.476;2023-04-12T02:58:05;3.10;;;1.15;;
68866;SDS011;56451;44.804;20.476;2023-04-12T03:00:33;4.13;;;1.25;;
68866;SDS011;56451;44.804;20.476;2023-04-12T03:03:01;2.88;;;1.42;;
68866;SDS011;56451;44.804;20.476;2023-04-12T03:05:29;3.93;;;1.00;;
68866;SDS011;56451;44.804;20.476;2023-04-12T03:07:56;4.85;;;1.23;;
68866;SDS011;56451;44.804;20.476;2023-04-12T03:10:29;2.67;;;0.90;;
68866;SDS011;56451;44.804;20.476;2023-04-12T03:13:00;3.15;;;0.80;;
68866;SDS011;56451;44.804;20.476;2023-04-12T03:15:35;3.40;;;0.70;;
68866;SDS011;56451;44.804;20.476;2023-04-12T03:18:02;2.50;;;0.97;;
68866;SDS011;56451;44.804;20.476;2023-04-12T03:20:32;3.05;;;1.08;;
68866;SDS011;56451;44.804;20.476;2023-04-12T03:23:07;1.58;;;0.82;;
68866;SDS011;56451;44.804;20.476;2023-04-12T03:25:36;5.15;;;1.10;;
68866;SDS011;56451;44.804;20.476;2023-04-12T03:28:20;3.05;;;0.82;;
68866;SDS011;56451;44.804;20.476;2023-04-12T03:30:50;3.63;;;1.00;;
68866;SDS011;56451;44.804;20.476;2023-04-12T03:33:19;3.92;;;1.50;;
68866;SDS011;56451;44.804;20.476;2023-04-12T03:35:46;4.45;;;1.52;;
68866;SDS011;56451;44.804;20.476;2023-04-12T03:38:13;6.97;;;2.50;;
68866;SDS011;56451;44.804;20.476;2023-04-12T03:40:41;5.05;;;1.98;;
68866;SDS011;56451;44.804;20.476;2023-04-12T03:43:08;11.70;;;2.67;;
68866;SDS011;56451;44.804;20.476;2023-04-12T03:45:34;6.88;;;2.30;;
68866;SDS011;56451;44.804;20.476;2023-04-12T03:48:01;10.25;;;2.97;;
68866;SDS011;56451;44.804;20.476;2023-04-12T03:50:30;4.45;;;1.15;;
68866;SDS011;56451;44.804;20.476;2023-04-12T03:53:07;3.20;;;1.15;;
68866;SDS011;56451;44.804;20.476;2023-04-12T03:55:33;1.83;;;0.82;;
68866;SDS011;56451;44.804;20.476;2023-04-12T03:58:03;8.02;;;2.05;;
68866;SDS011;56451;44.804;20.476;2023-04-12T04:00:34;4.05;;;1.05;;
68866;SDS011;56451;44.804;20.476;2023-04-12T04:03:07;5.03;;;1.25;;
68866;SDS011;56451;44.804;20.476;2023-04-12T04:05:40;3.30;;;0.80;;
68866;SDS011;56451;44.804;20.476;2023-04-12T04:08:07;2.08;;;0.98;;
68866;SDS011;56451;44.804;20.476;2023-04-12T04:10:46;3.53;;;1.00;;
68866;SDS011;56451;44.804;20.476;2023-04-12T04:13:12;5.78;;;1.60;;
68866;SDS011;56451;44.804;20.476;2023-04-12T04:15:39;5.20;;;1.33;;
68866;SDS011;56451;44.804;20.476;2023-04-12T04:18:05;2.93;;;1.20;;
68866;SDS011;56451;44.804;20.476;2023-04-12T04:20:30;6.35;;;1.98;;
68866;SDS011;56451;44.804;20.476;2023-04-12T04:22:57;2.65;;;1.33;;
68866;SDS011;56451;44.804;20.476;2023-04-12T04:25:24;2.83;;;1.13;;
68866;SDS011;56451;44.804;20.476;2023-04-12T04:27:55;2.43;;;0.90;;
68866;SDS011;56451;44.804;20.476;2023-04-12T04:30:25;2.40;;;1.15;;
68866;SDS011;56451;44.804;20.476;2023-04-12T04:32:51;3.40;;;1.20;;
68866;SDS011;56451;44.804;20.476;2023-04-12T04:35:20;3.35;;;1.00;;
68866;SDS011;56451;44.804;20.476;2023-04-12T04:38:00;4.38;;;1.10;;
68866;SDS011;56451;44.804;20.476;2023-04-12T04:40:27;8.15;;;2.83;;
68866;SDS011;56451;44.804;20.476;2023-04-12T04:42:53;1.90;;;1.00;;
68866;SDS011;56451;44.804;20.476;2023-04-12T04:45:22;3.47;;;1.00;;
68866;SDS011;56451;44.804;20.476;2023-04-12T04:47:51;3.60;;;1.30;;
68866;SDS011;56451;44.804;20.476;2023-04-12T04:50:21;5.25;;;1.85;;
68866;SDS011;56451;44.804;20.476;2023-04-12T04:52:49;5.85;;;1.10;;
68866;SDS011;56451;44.804;20.476;2023-04-12T04:55:16;4.13;;;1.40;;
68866;SDS011;56451;44.804;20.476;2023-04-12T04:57:44;2.72;;;1.40;;
68866;SDS011;56451;44.804;20.476;2023-04-12T05:00:11;2.83;;;1.23;;
68866;SDS011;56451;44.804;20.476;2023-04-12T05:02:41;3.83;;;1.08;;
68866;SDS011;56451;44.804;20.476;2023-04-12T05:05:09;2.17;;;0.77;;
68866;SDS011;56451;44.804;20.476;2023-04-12T05:07:37;2.58;;;0.93;;
68866;SDS011;56451;44.804;20.476;2023-04-12T05:10:04;4.80;;;0.98;;
68866;SDS011;56451;44.804;20.476;2023-04-12T05:12:34;2.67;;;1.30;;
68866;SDS011;56451;44.804;20.476;2023-04-12T05:15:00;11.55;;;3.72;;
68866;SDS011;56451;44.804;20.476;2023-04-12T05:17:27;7.72;;;2.80;;
68866;SDS011;56451;44.804;20.476;2023-04-12T05:19:53;4.60;;;1.35;;
68866;SDS011;56451;44.804;20.476;2023-04-12T05:22:20;2.65;;;1.30;;
68866;SDS011;56451;44.804;20.476;2023-04-12T05:24:47;3.83;;;1.42;;
68866;SDS011;56451;44.804;20.476;2023-04-12T05:27:13;7.20;;;2.30;;
68866;SDS011;56451;44.804;20.476;2023-04-12T05:29:45;2.40;;;1.30;;
68866;SDS011;56451;44.804;20.476;2023-04-12T05:32:13;3.13;;;1.38;;
68866;SDS011;56451;44.804;20.476;2023-04-12T05:34:39;5.65;;;1.42;;
68866;SDS011;56451;44.804;20.476;2023-04-12T05:37:07;7.50;;;3.10;;
68866;SDS011;56451;44.804;20.476;2023-04-12T05:39:37;5.32;;;1.92;;
68866;SDS011;56451;44.804;20.476;2023-04-12T05:42:06;6.03;;;1.85;;
68866;SDS011;56451;44.804;20.476;2023-04-12T05:44:36;6.30;;;1.60;;
68866;SDS011;56451;44.804;20.476;2023-04-12T05:47:05;3.65;;;1.30;;
68866;SDS011;56451;44.804;20.476;2023-04-12T05:49:31;3.63;;;1.40;;
68866;SDS011;56451;44.804;20.476;2023-04-12T05:51:59;3.15;;;1.63;;
68866;SDS011;56451;44.804;20.476;2023-04-12T05:54:26;2.22;;;1.60;;
68866;SDS011;56451;44.804;20.476;2023-04-12T05:56:53;11.25;;;4.82;;
68866;SDS011;56451;44.804;20.476;2023-04-12T05:59:19;9.48;;;5.75;;
68866;SDS011;56451;44.804;20.476;2023-04-12T06:01:46;5.50;;;2.30;;
68866;SDS011;56451;44.804;20.476;2023-04-12T06:04:14;6.82;;;4.03;;
68866;SDS011;56451;44.804;20.476;2023-04-12T06:06:40;3.33;;;2.25;;
68866;SDS011;56451;44.804;20.476;2023-04-12T06:09:06;5.57;;;4.20;;
68866;SDS011;56451;44.804;20.476;2023-04-12T06:11:32;2.80;;;1.30;;
68866;SDS011;56451;44.804;20.476;2023-04-12T06:13:59;2.37;;;1.23;;
68866;SDS011;56451;44.804;20.476;2023-04-12T06:16:25;5.53;;;1.67;;
68866;SDS011;56451;44.804;20.476;2023-04-12T06:18:52;3.10;;;1.70;;
68866;SDS011;56451;44.804;20.476;2023-04-12T06:21:18;3.38;;;1.80;;
68866;SDS011;56451;44.804;20.476;2023-04-12T06:23:44;3.40;;;1.30;;
68866;SDS011;56451;44.804;20.476;2023-04-12T06:26:10;4.70;;;1.48;;
68866;SDS011;56451;44.804;20.476;2023-04-12T06:28:37;5.10;;;2.00;;
68866;SDS011;56451;44.804;20.476;2023-04-12T06:31:03;4.35;;;1.77;;
68866;SDS011;56451;44.804;20.476;2023-04-12T06:33:34;3.05;;;1.48;;
68866;SDS011;56451;44.804;20.476;2023-04-12T06:36:04;3.80;;;1.50;;
68866;SDS011;56451;44.804;20.476;2023-04-12T06:38:30;2.22;;;1.25;;
68866;SDS011;56451;44.804;20.476;2023-04-12T06:40:56;3.85;;;1.73;;
68866;SDS011;56451;44.804;20.476;2023-04-12T06:43:22;3.15;;;1.50;;
68866;SDS011;56451;44.804;20.476;2023-04-12T06:45:48;5.35;;;2.95;;
68866;SDS011;56451;44.804;20.476;2023-04-12T06:48:14;5.72;;;2.00;;
68866;SDS011;56451;44.804;20.476;2023-04-12T06:50:40;2.00;;;1.33;;
68866;SDS011;56451;44.804;20.476;2023-04-12T06:53:06;4.83;;;1.80;;
68866;SDS011;56451;44.804;20.476;2023-04-12T06:55:32;4.35;;;1.60;;
68866;SDS011;56451;44.804;20.476;2023-04-12T06:57:59;3.97;;;1.80;;
68866;SDS011;56451;44.804;20.476;2023-04-12T07:00:25;4.75;;;1.80;;
68866;SDS011;56451;44.804;20.476;2023-04-12T07:02:51;5.93;;;2.67;;
68866;SDS011;56451;44.804;20.476;2023-04-12T07:05:17;4.70;;;2.23;;
68866;SDS011;56451;44.804;20.476;2023-04-12T07:07:43;3.95;;;1.70;;
68866;SDS011;56451;44.804;20.476;2023-04-12T07:10:09;4.05;;;1.90;;
68866;SDS011;56451;44.804;20.476;2023-04-12T07:12:35;3.90;;;1.85;;
68866;SDS011;56451;44.804;20.476;2023-04-12T07:15:02;4.30;;;1.80;;
68866;SDS011;56451;44.804;20.476;2023-04-12T07:17:28;4.90;;;2.05;;
68866;SDS011;56451;44.804;20.476;2023-04-12T07:19:54;5.22;;;1.90;;
68866;SDS011;56451;44.804;20.476;2023-04-12T07:22:20;3.13;;;1.80;;
68866;SDS011;56451;44.804;20.476;2023-04-12T07:24:47;5.38;;;2.10;;
68866;SDS011;56451;44.804;20.476;2023-04-12T07:27:14;4.40;;;1.90;;
68866;SDS011;56451;44.804;20.476;2023-04-12T07:29:40;5.40;;;2.13;;
68866;SDS011;56451;44.804;20.476;2023-04-12T07:32:06;5.20;;;1.95;;
68866;SDS011;56451;44.804;20.476;2023-04-12T07:34:34;6.20;;;2.13;;
68866;SDS011;56451;44.804;20.476;2023-04-12T07:37:02;3.63;;;2.00;;
68866;SDS011;56451;44.804;20.476;2023-04-12T07:39:28;3.58;;;1.70;;
68866;SDS011;56451;44.804;20.476;2023-04-12T07:41:54;3.70;;;1.67;;
68866;SDS011;56451;44.804;20.476;2023-04-12T07:44:20;3.10;;;1.80;;
68866;SDS011;56451;44.804;20.476;2023-04-12T07:46:46;4.90;;;2.20;;
68866;SDS011;56451;44.804;20.476;2023-04-12T07:49:12;4.57;;;2.20;;
68866;SDS011;56451;44.804;20.476;2023-04-12T07:51:38;5.03;;;2.38;;
68866;SDS011;56451;44.804;20.476;2023-04-12T07:54:03;4.83;;;2.10;;
68866;SDS011;56451;44.804;20.476;2023-04-12T07:56:33;4.20;;;1.90;;
68866;SDS011;56451;44.804;20.476;2023-04-12T07:59:00;3.67;;;1.90;;
68866;SDS011;56451;44.804;20.476;2023-04-12T08:01:25;4.90;;;1.85;;
68866;SDS011;56451;44.804;20.476;2023-04-12T08:03:52;5.72;;;2.00;;
68866;SDS011;56451;44.804;20.476;2023-04-12T08:06:18;5.37;;;2.30;;
68866;SDS011;56451;44.804;20.476;2023-04-12T08:08:43;4.35;;;2.67;;
68866;SDS011;56451;44.804;20.476;2023-04-12T08:11:10;5.18;;;2.88;;
68866;SDS011;56451;44.804;20.476;2023-04-12T08:13:36;2.65;;;1.73;;
68866;SDS011;56451;44.804;20.476;2023-04-12T08:16:02;5.37;;;2.07;;
68866;SDS011;56451;44.804;20.476;2023-04-12T08:18:28;5.47;;;1.83;;
68866;SDS011;56451;44.804;20.476;2023-04-12T08:20:55;5.35;;;2.30;;
68866;SDS011;56451;44.804;20.476;2023-04-12T08:23:22;3.33;;;1.80;;
68866;SDS011;56451;44.804;20.476;2023-04-12T08:25:49;3.95;;;1.70;;
68866;SDS011;56451;44.804;20.476;2023-04-12T08:28:15;3.03;;;1.80;;
68866;SDS011;56451;44.804;20.476;2023-04-12T08:30:42;2.65;;;1.40;;
68866;SDS011;56451;44.804;20.476;2023-04-12T08:33:08;5.15;;;1.67;;
68866;SDS011;56451;44.804;20.476;2023-04-12T08:35:34;3.75;;;1.50;;
68866;SDS011;56451;44.804;20.476;2023-04-12T08:38:00;4.17;;;1.63;;
68866;SDS011;56451;44.804;20.476;2023-04-12T08:40:32;6.50;;;2.13;;
68866;SDS011;56451;44.804;20.476;2023-04-12T08:43:01;9.25;;;1.73;;
68866;SDS011;56451;44.804;20.476;2023-04-12T08:45:31;3.05;;;1.55;;
68866;SDS011;56451;44.804;20.476;2023-04-12T08:48:01;4.53;;;1.60;;
68866;SDS011;56451;44.804;20.476;2023-04-12T08:50:28;11.80;;;1.67;;
68866;SDS011;56451;44.804;20.476;2023-04-12T08:52:55;4.63;;;2.10;;
68866;SDS011;56451;44.804;20.476;2023-04-12T08:55:22;5.05;;;1.80;;
68866;SDS011;56451;44.804;20.476;2023-04-12T08:57:48;7.22;;;1.95;;
68866;SDS011;56451;44.804;20.476;2023-04-12T09:00:18;3.97;;;1.63;;
68866;SDS011;56451;44.804;20.476;2023-04-12T09:02:45;2.57;;;1.50;;
68866;SDS011;56451;44.804;20.476;2023-04-12T09:05:13;5.68;;;1.83;;
68866;SDS011;56451;44.804;20.476;2023-04-12T09:07:40;4.45;;;1.88;;
68866;SDS011;56451;44.804;20.476;2023-04-12T09:10:07;5.72;;;2.30;;
68866;SDS011;56451;44.804;20.476;2023-04-12T09:12:33;5.47;;;2.05;;
68866;SDS011;56451;44.804;20.476;2023-04-12T09:15:09;3.70;;;2.03;;
68866;SDS011;56451;44.804;20.476;2023-04-12T09:17:38;3.58;;;2.10;;
68866;SDS011;56451;44.804;20.476;2023-04-12T09:22:41;4.88;;;2.03;;
68866;SDS011;56451;44.804;20.476;2023-04-12T09:25:11;5.07;;;1.48;;
68866;SDS011;56451;44.804;20.476;2023-04-12T09:27:47;5.67;;;2.00;;
68866;SDS011;56451;44.804;20.476;2023-04-12T09:30:15;8.43;;;2.10;;
68866;SDS011;56451;44.804;20.476;2023-04-12T09:32:42;5.13;;;1.75;;
68866;SDS011;56451;44.804;20.476;2023-04-12T09:35:09;5.30;;;1.90;;
68866;SDS011;56451;44.804;20.476;2023-04-12T09:37:36;3.70;;;2.00;;
68866;SDS011;56451;44.804;20.476;2023-04-12T09:40:08;4.77;;;2.00;;
68866;SDS011;56451;44.804;20.476;2023-04-12T09:42:51;5.00;;;1.80;;
68866;SDS011;56451;44.804;20.476;2023-04-12T09:45:18;3.60;;;1.40;;
68866;SDS011;56451;44.804;20.476;2023-04-12T09:47:46;3.40;;;1.90;;
68866;SDS011;56451;44.804;20.476;2023-04-12T09:50:29;4.50;;;1.60;;
68866;SDS011;56451;44.804;20.476;2023-04-12T09:52:58;4.37;;;1.57;;
68866;SDS011;56451;44.804;20.476;2023-04-12T09:55:29;5.43;;;1.58;;
68866;SDS011;56451;44.804;20.476;2023-04-12T09:57:56;5.35;;;1.88;;
68866;SDS011;56451;44.804;20.476;2023-04-12T10:00:29;5.57;;;1.27;;
68866;SDS011;56451;44.804;20.476;2023-04-12T10:02:56;3.50;;;1.27;;
68866;SDS011;56451;44.804;20.476;2023-04-12T10:05:23;2.97;;;1.43;;
68866;SDS011;56451;44.804;20.476;2023-04-12T10:07:50;6.78;;;2.08;;
68866;SDS011;56451;44.804;20.476;2023-04-12T10:10:16;4.80;;;1.95;;
68866;SDS011;56451;44.804;20.476;2023-04-12T10:12:44;2.10;;;1.27;;
68866;SDS011;56451;44.804;20.476;2023-04-12T10:15:11;5.00;;;1.23;;
68866;SDS011;56451;44.804;20.476;2023-04-12T10:17:48;8.15;;;1.60;;
68866;SDS011;56451;44.804;20.476;2023-04-12T10:20:16;4.30;;;1.30;;
68866;SDS011;56451;44.804;20.476;2023-04-12T10:22:44;6.10;;;2.00;;
68866;SDS011;56451;44.804;20.476;2023-04-12T10:25:18;3.60;;;1.52;;
68866;SDS011;56451;44.804;20.476;2023-04-12T10:27:47;5.87;;;1.70;;
68866;SDS011;56451;44.804;20.476;2023-04-12T10:30:31;3.42;;;1.70;;
68866;SDS011;56451;44.804;20.476;2023-04-12T10:35:26;4.10;;;1.73;;
68866;SDS011;56451;44.804;20.476;2023-04-12T10:38:00;6.65;;;2.30;;
68866;SDS011;56451;44.804;20.476;2023-04-12T10:40:32;4.77;;;1.70;;
68866;SDS011;56451;44.804;20.476;2023-04-12T10:45:49;4.05;;;1.52;;
68866;SDS011;56451;44.804;20.476;2023-04-12T10:51:11;6.95;;;1.55;;
68866;SDS011;56451;44.804;20.476;2023-04-12T10:53:40;3.37;;;1.10;;
68866;SDS011;56451;44.804;20.476;2023-04-12T11:01:29;5.22;;;1.30;;
68866;SDS011;56451;44.804;20.476;2023-04-12T11:04:15;8.00;;;1.83;;
68866;SDS011;56451;44.804;20.476;2023-04-12T11:07:18;3.03;;;1.13;;
68866;SDS011;56451;44.804;20.476;2023-04-12T11:09:50;3.22;;;1.30;;
68866;SDS011;56451;44.804;20.476;2023-04-12T11:12:31;3.72;;;1.55;;
68866;SDS011;56451;44.804;20.476;2023-04-12T11:14:59;3.25;;;1.00;;
68866;SDS011;56451;44.804;20.476;2023-04-12T11:17:31;4.43;;;1.27;;
68866;SDS011;56451;44.804;20.476;2023-04-12T11:20:00;2.17;;;1.33;;
68866;SDS011;56451;44.804;20.476;2023-04-12T11:22:27;4.28;;;1.30;;
68866;SDS011;56451;44.804;20.476;2023-04-12T11:24:56;2.03;;;1.00;;
68866;SDS011;56451;44.804;20.476;2023-04-12T11:27:23;4.10;;;1.30;;
68866;SDS011;56451;44.804;20.476;2023-04-12T11:29:52;4.27;;;1.20;;
68866;SDS011;56451;44.804;20.476;2023-04-12T11:32:24;3.92;;;1.40;;
68866;SDS011;56451;44.804;20.476;2023-04-12T11:34:52;3.22;;;1.10;;
68866;SDS011;56451;44.804;20.476;2023-04-12T11:37:20;4.75;;;1.23;;
68866;SDS011;56451;44.804;20.476;2023-04-12T11:39:49;2.53;;;1.17;;
68866;SDS011;56451;44.804;20.476;2023-04-12T11:42:23;3.83;;;1.37;;
68866;SDS011;56451;44.804;20.476;2023-04-12T11:44:50;5.22;;;1.10;;
68866;SDS011;56451;44.804;20.476;2023-04-12T11:47:18;3.28;;;0.98;;
68866;SDS011;56451;44.804;20.476;2023-04-12T11:49:47;3.03;;;1.40;;
68866;SDS011;56451;44.804;20.476;2023-04-12T11:52:17;2.65;;;0.98;;
68866;SDS011;56451;44.804;20.476;2023-04-12T11:54:45;2.90;;;1.13;;
68866;SDS011;56451;44.804;20.476;2023-04-12T11:57:16;3.72;;;1.23;;
68866;SDS011;56451;44.804;20.476;2023-04-12T11:59:47;5.15;;;1.30;;
68866;SDS011;56451;44.804;20.476;2023-04-12T12:02:14;4.38;;;1.52;;
68866;SDS011;56451;44.804;20.476;2023-04-12T12:04:43;3.20;;;1.33;;
68866;SDS011;56451;44.804;20.476;2023-04-12T12:07:12;3.93;;;1.10;;
68866;SDS011;56451;44.804;20.476;2023-04-12T12:09:39;2.97;;;1.45;;
68866;SDS011;56451;44.804;20.476;2023-04-12T12:12:06;6.68;;;1.20;;
68866;SDS011;56451;44.804;20.476;2023-04-12T12:14:34;4.68;;;1.30;;
68866;SDS011;56451;44.804;20.476;2023-04-12T12:17:01;3.45;;;1.00;;
68866;SDS011;56451;44.804;20.476;2023-04-12T12:19:36;2.63;;;0.80;;
68866;SDS011;56451;44.804;20.476;2023-04-12T12:22:06;5.53;;;0.90;;
68866;SDS011;56451;44.804;20.476;2023-04-12T12:24:32;4.18;;;1.20;;
68866;SDS011;56451;44.804;20.476;2023-04-12T12:27:01;5.07;;;0.93;;
68866;SDS011;56451;44.804;20.476;2023-04-12T12:29:33;2.92;;;1.10;;
68866;SDS011;56451;44.804;20.476;2023-04-12T12:32:01;2.83;;;1.10;;
68866;SDS011;56451;44.804;20.476;2023-04-12T12:34:30;3.63;;;1.25;;
68866;SDS011;56451;44.804;20.476;2023-04-12T12:36:58;4.82;;;1.90;;
68866;SDS011;56451;44.804;20.476;2023-04-12T12:39:25;2.42;;;1.10;;
68866;SDS011;56451;44.804;20.476;2023-04-12T12:41:52;8.80;;;1.88;;
68866;SDS011;56451;44.804;20.476;2023-04-12T12:44:20;3.53;;;1.10;;
68866;SDS011;56451;44.804;20.476;2023-04-12T12:46:49;2.97;;;1.38;;
68866;SDS011;56451;44.804;20.476;2023-04-12T12:49:16;5.78;;;1.45;;
68866;SDS011;56451;44.804;20.476;2023-04-12T12:51:42;2.28;;;1.30;;
68866;SDS011;56451;44.804;20.476;2023-04-12T12:54:08;2.53;;;1.10;;
68866;SDS011;56451;44.804;20.476;2023-04-12T12:56:34;4.07;;;1.30;;
68866;SDS011;56451;44.804;20.476;2023-04-12T12:59:01;4.90;;;1.35;;
68866;SDS011;56451;44.804;20.476;2023-04-12T13:01:27;3.35;;;1.33;;
68866;SDS011;56451;44.804;20.476;2023-04-12T13:03:53;3.77;;;1.13;;
68866;SDS011;56451;44.804;20.476;2023-04-12T13:06:19;5.78;;;1.40;;
68866;SDS011;56451;44.804;20.476;2023-04-12T13:08:46;4.68;;;1.45;;
68866;SDS011;56451;44.804;20.476;2023-04-12T13:11:12;7.00;;;2.00;;
68866;SDS011;56451;44.804;20.476;2023-04-12T13:13:38;3.07;;;1.30;;
68866;SDS011;56451;44.804;20.476;2023-04-12T13:16:04;6.20;;;1.42;;
68866;SDS011;56451;44.804;20.476;2023-04-12T13:18:30;2.42;;;1.00;;
68866;SDS011;56451;44.804;20.476;2023-04-12T13:20:57;4.90;;;1.08;;
68866;SDS011;56451;44.804;20.476;2023-04-12T13:23:22;4.03;;;1.20;;
68866;SDS011;56451;44.804;20.476;2023-04-12T13:25:48;3.78;;;1.25;;
68866;SDS011;56451;44.804;20.476;2023-04-12T13:28:15;3.55;;;1.10;;
68866;SDS011;56451;44.804;20.476;2023-04-12T13:30:45;3.73;;;1.30;;
68866;SDS011;56451;44.804;20.476;2023-04-12T13:33:13;2.72;;;1.30;;
68866;SDS011;56451;44.804;20.476;2023-04-12T13:35:39;5.47;;;1.60;;
68866;SDS011;56451;44.804;20.476;2023-04-12T13:38:05;2.37;;;1.50;;
68866;SDS011;56451;44.804;20.476;2023-04-12T13:40:30;2.53;;;1.10;;
68866;SDS011;56451;44.804;20.476;2023-04-12T13:42:57;5.78;;;1.42;;
68866;SDS011;56451;44.804;20.476;2023-04-12T13:45:23;2.92;;;1.20;;
68866;SDS011;56451;44.804;20.476;2023-04-12T13:47:49;5.47;;;1.20;;
68866;SDS011;56451;44.804;20.476;2023-04-12T13:50:15;4.70;;;1.20;;
68866;SDS011;56451;44.804;20.476;2023-04-12T13:52:41;4.35;;;1.35;;
68866;SDS011;56451;44.804;20.476;2023-04-12T13:55:07;2.65;;;1.25;;
68866;SDS011;56451;44.804;20.476;2023-04-12T13:57:33;3.77;;;1.20;;
68866;SDS011;56451;44.804;20.476;2023-04-12T14:00:02;3.60;;;1.17;;
68866;SDS011;56451;44.804;20.476;2023-04-12T14:02:30;3.63;;;1.40;;
68866;SDS011;56451;44.804;20.476;2023-04-12T14:04:56;3.90;;;1.20;;
68866;SDS011;56451;44.804;20.476;2023-04-12T14:07:22;3.15;;;1.13;;
68866;SDS011;56451;44.804;20.476;2023-04-12T14:09:48;2.63;;;1.20;;
68866;SDS011;56451;44.804;20.476;2023-04-12T14:12:14;4.97;;;1.17;;
68866;SDS011;56451;44.804;20.476;2023-04-12T14:14:40;3.42;;;1.30;;
68866;SDS011;56451;44.804;20.476;2023-04-12T14:17:07;3.30;;;1.40;;
68866;SDS011;56451;44.804;20.476;2023-04-12T14:19:32;2.23;;;1.43;;
68866;SDS011;56451;44.804;20.476;2023-04-12T14:21:58;5.35;;;1.55;;
68866;SDS011;56451;44.804;20.476;2023-04-12T14:24:26;3.50;;;1.30;;
68866;SDS011;56451;44.804;20.476;2023-04-12T14:26:53;3.03;;;1.75;;
68866;SDS011;56451;44.804;20.476;2023-04-12T14:29:18;3.07;;;1.33;;
68866;SDS011;56451;44.804;20.476;2023-04-12T14:31:44;3.58;;;1.30;;
68866;SDS011;56451;44.804;20.476;2023-04-12T14:34:11;3.97;;;1.23;;
68866;SDS011;56451;44.804;20.476;2023-04-12T14:36:38;2.85;;;1.10;;
68866;SDS011;56451;44.804;20.476;2023-04-12T14:39:04;3.03;;;1.20;;
68866;SDS011;56451;44.804;20.476;2023-04-12T14:41:30;3.75;;;1.52;;
68866;SDS011;56451;44.804;20.476;2023-04-12T14:43:59;4.35;;;1.15;;
68866;SDS011;56451;44.804;20.476;2023-04-12T14:46:26;5.97;;;1.33;;
68866;SDS011;56451;44.804;20.476;2023-04-12T14:48:53;3.03;;;1.10;;
68866;SDS011;56451;44.804;20.476;2023-04-12T14:51:19;4.37;;;1.10;;
68866;SDS011;56451;44.804;20.476;2023-04-12T14:53:45;4.05;;;1.20;;
68866;SDS011;56451;44.804;20.476;2023-04-12T14:56:21;2.05;;;1.23;;
68866;SDS011;56451;44.804;20.476;2023-04-12T14:58:54;6.65;;;2.72;;
68866;SDS011;56451;44.804;20.476;2023-04-12T15:01:21;4.63;;;1.30;;
68866;SDS011;56451;44.804;20.476;2023-04-12T15:03:48;3.13;;;1.37;;
68866;SDS011;56451;44.804;20.476;2023-04-12T15:06:16;2.63;;;1.15;;
68866;SDS011;56451;44.804;20.476;2023-04-12T15:08:42;3.10;;;1.40;;